createdAt,value
2022-10-05T00:01:47.466Z,87.82
2022-10-05T00:04:52.946Z,88.65
2022-10-05T00:07:55.140Z,88.58
2022-10-05T00:10:57.174Z,88.54
2022-10-05T00:13:59.212Z,89.23
2022-10-05T00:17:02.059Z,88.18
2022-10-05T00:20:25.447Z,88.86
2022-10-05T00:23:31.279Z,89.20
2022-10-05T00:26:33.536Z,88.43
2022-10-05T00:29:35.623Z,88.80
2022-10-05T00:32:37.667Z,88.29
2022-10-05T00:35:40.132Z,88.16
2022-10-05T00:38:42.459Z,88.53
2022-10-05T00:42:17.383Z,88.29
2022-10-05T00:45:27.594Z,88.78
2022-10-05T00:48:45.343Z,88.56
2022-10-05T00:52:20.377Z,87.86
2022-10-05T00:55:58.038Z,87.19
2022-10-05T00:59:17.950Z,87.58
2022-10-05T01:02:44.892Z,88.05
2022-10-05T01:06:11.885Z,88.57
2022-10-05T01:09:48.028Z,86.19
2022-10-05T01:13:53.405Z,82.42
2022-10-05T01:17:13.632Z,81.37
2022-10-05T01:20:57.934Z,80.13
2022-10-05T01:24:16.991Z,79.50
2022-10-05T01:27:49.481Z,80.20
2022-10-05T01:31:21.944Z,80.04
2022-10-05T01:34:37.414Z,81.19
2022-10-05T01:38:10.618Z,80.89
2022-10-05T01:41:27.207Z,81.88
2022-10-05T01:44:33.307Z,82.74
2022-10-05T01:48:13.910Z,82.69
2022-10-05T01:52:13.383Z,82.58
2022-10-05T01:55:45.346Z,81.94
2022-10-05T01:59:16.764Z,82.42
2022-10-05T02:02:20.387Z,82.38
2022-10-05T02:05:29.250Z,82.36
2022-10-05T02:08:58.090Z,81.81
2022-10-05T02:12:04.750Z,80.52
2022-10-05T02:15:17.270Z,81.93
2022-10-05T02:18:28.950Z,82.55
2022-10-05T02:21:31.673Z,82.53
2022-10-05T02:24:39.532Z,82.07
2022-10-05T02:28:29.707Z,81.44
2022-10-05T02:31:45.897Z,82.25
2022-10-05T02:34:48.191Z,82.28
2022-10-05T02:38:14.262Z,84.26
2022-10-05T02:41:50.641Z,86.40
2022-10-05T02:45:20.234Z,88.16
2022-10-05T02:48:59.802Z,88.29
2022-10-05T02:52:27.094Z,88.69
2022-10-05T02:55:58.230Z,88.79
2022-10-05T02:59:35.951Z,86.41
2022-10-05T03:02:55.698Z,86.37
2022-10-05T03:06:10.578Z,85.05
2022-10-05T03:09:12.723Z,83.41
2022-10-05T03:13:18.362Z,82.18
2022-10-05T03:16:38.392Z,80.29
2022-10-05T03:20:09.985Z,79.55
2022-10-05T03:23:25.617Z,78.06
2022-10-05T03:27:08.894Z,79.19
2022-10-05T03:30:19.759Z,79.56
2022-10-05T03:34:03.490Z,81.23
2022-10-05T03:37:19.496Z,81.59
2022-10-05T03:40:40.439Z,81.50
2022-10-05T03:44:08.806Z,81.42
2022-10-05T03:47:33.976Z,81.44
2022-10-05T03:51:16.377Z,80.37
2022-10-05T03:54:43.326Z,81.01
2022-10-05T03:57:45.751Z,81.04
2022-10-05T04:00:51.783Z,81.49
2022-10-05T04:03:59.965Z,81.39
2022-10-05T04:07:02.098Z,82.71
2022-10-05T04:10:10.463Z,82.58
2022-10-05T04:13:37.311Z,83.50
2022-10-05T04:16:46.050Z,83.71
2022-10-05T04:20:04.493Z,84.32
2022-10-05T04:23:09.787Z,84.45
2022-10-05T04:26:16.179Z,83.55
2022-10-05T04:29:28.941Z,83.47
2022-10-05T04:32:45.990Z,82.03
2022-10-05T04:36:27.927Z,82.27
2022-10-05T04:39:48.671Z,82.17
2022-10-05T04:42:56.895Z,81.35
2022-10-05T04:46:11.084Z,80.45
2022-10-05T04:49:44.320Z,79.65
2022-10-05T04:53:14.091Z,79.76
2022-10-05T04:56:24.270Z,79.70
2022-10-05T04:59:52.290Z,78.22
2022-10-05T05:03:19.602Z,77.91
2022-10-05T05:06:35.071Z,78.52
2022-10-05T05:10:26.518Z,78.25
2022-10-05T05:13:53.599Z,78.61
2022-10-05T05:17:36.454Z,78.46
2022-10-05T05:21:33.306Z,77.92
2022-10-05T05:25:04.557Z,77.93
2022-10-05T05:28:23.439Z,78.84
2022-10-05T05:31:28.752Z,79.64
2022-10-05T05:34:51.930Z,79.84
2022-10-05T05:38:05.063Z,80.37
2022-10-05T05:41:29.984Z,80.12
2022-10-05T05:44:45.388Z,80.67
2022-10-05T05:47:53.980Z,80.33
2022-10-05T05:51:05.129Z,81.02
2022-10-05T05:54:16.486Z,81.28
2022-10-05T05:57:38.730Z,81.79
2022-10-05T06:00:58.563Z,82.35
2022-10-05T06:04:17.477Z,82.79
2022-10-05T06:07:30.227Z,82.82
2022-10-05T06:10:51.751Z,83.48
2022-10-05T06:13:58.263Z,83.71
2022-10-05T06:17:07.639Z,83.59
2022-10-05T06:20:29.055Z,82.34
2022-10-05T06:24:04.275Z,84.30
2022-10-05T06:27:25.819Z,83.64
2022-10-05T06:30:58.183Z,85.31
2022-10-05T06:34:14.715Z,86.18
2022-10-05T06:37:37.750Z,86.38
2022-10-05T06:41:24.266Z,86.27
2022-10-05T06:44:34.389Z,85.78
2022-10-05T06:48:36.955Z,84.24
2022-10-05T06:52:25.058Z,84.49
2022-10-05T06:55:45.677Z,83.50
2022-10-05T06:59:01.682Z,83.70
2022-10-05T07:02:21.266Z,83.71
2022-10-05T07:05:52.479Z,82.96
2022-10-05T07:09:14.372Z,83.95
2022-10-05T07:12:53.674Z,84.46
2022-10-05T07:16:47.908Z,84.50
2022-10-05T07:20:17.244Z,84.70
2022-10-05T07:23:53.160Z,85.61
2022-10-05T07:27:12.663Z,85.88
2022-10-05T07:30:15.460Z,86.55
2022-10-05T07:33:25.679Z,86.33
2022-10-05T07:37:03.130Z,85.67
2022-10-05T07:40:10.021Z,86.74
2022-10-05T07:43:45.315Z,85.51
2022-10-05T07:47:00.956Z,86.13
2022-10-05T07:50:18.936Z,86.37
2022-10-05T07:53:49.431Z,86.21
2022-10-05T07:57:13.792Z,86.69
2022-10-05T08:00:20.188Z,86.67
2022-10-05T08:03:58.307Z,85.19
2022-10-05T08:07:05.920Z,84.55
2022-10-05T08:10:27.756Z,89.46
2022-10-05T08:13:56.061Z,84.67
2022-10-05T08:16:58.334Z,84.18
2022-10-05T08:20:18.565Z,83.67
2022-10-05T08:23:38.716Z,82.94
2022-10-05T08:26:59.874Z,82.59
2022-10-05T08:30:09.535Z,80.68
2022-10-05T08:33:14.862Z,80.73
2022-10-05T08:36:16.931Z,81.00
2022-10-05T08:39:20.115Z,80.41
2022-10-05T08:43:02.476Z,79.99
2022-10-05T08:46:27.806Z,80.63
2022-10-05T08:50:10.238Z,80.76
2022-10-05T08:53:34.009Z,80.35
2022-10-05T08:56:46.011Z,80.78
2022-10-05T09:00:10.973Z,80.25
2022-10-05T09:03:43.280Z,80.48
2022-10-05T09:07:07.092Z,79.56
2022-10-05T09:10:27.233Z,78.70
2022-10-05T09:13:54.689Z,77.53
2022-10-05T09:17:24.660Z,78.88
2022-10-05T09:20:33.362Z,78.44
2022-10-05T09:23:40.004Z,78.08
2022-10-05T09:27:17.912Z,77.47
2022-10-05T09:30:52.564Z,77.91
2022-10-05T09:34:00.566Z,78.17
2022-10-05T09:37:54.673Z,78.17
2022-10-05T09:41:30.307Z,78.13
2022-10-05T09:44:45.583Z,77.96
2022-10-05T09:48:27.189Z,79.07
2022-10-05T09:51:51.480Z,76.56
2022-10-05T09:55:50.271Z,76.25
2022-10-05T09:59:13.188Z,77.69
2022-10-05T10:02:58.686Z,78.10
2022-10-05T10:06:12.844Z,77.98
2022-10-05T10:09:55.401Z,78.37
2022-10-05T10:13:31.280Z,77.65
2022-10-05T10:17:00.117Z,76.95
2022-10-05T10:20:17.166Z,75.68
2022-10-05T10:23:49.168Z,75.63
2022-10-05T10:27:42.166Z,75.95
2022-10-05T10:31:17.412Z,76.26
2022-10-05T10:35:19.056Z,76.13
2022-10-05T10:38:36.290Z,75.54
2022-10-05T10:41:57.227Z,75.29
2022-10-05T10:45:33.647Z,74.86
2022-10-05T10:48:50.098Z,74.15
2022-10-05T10:52:37.336Z,75.18
2022-10-05T10:56:16.719Z,75.31
2022-10-05T10:59:55.368Z,74.65
2022-10-05T11:03:40.961Z,74.45
2022-10-05T11:07:33.910Z,74.63
2022-10-05T11:11:17.924Z,73.74
2022-10-05T11:14:46.517Z,74.34
2022-10-05T11:17:58.228Z,75.25
2022-10-05T11:21:37.849Z,72.48
2022-10-05T11:25:09.218Z,73.41
2022-10-05T11:28:48.186Z,73.53
2022-10-05T11:32:09.028Z,73.88
2022-10-05T11:35:25.794Z,73.10
2022-10-05T11:38:53.846Z,72.66
2022-10-05T11:42:40.049Z,73.30
2022-10-05T11:46:20.492Z,73.97
2022-10-05T11:49:43.697Z,74.32
2022-10-05T11:52:54.487Z,74.49
2022-10-05T11:56:05.329Z,74.45
2022-10-05T11:59:27.664Z,73.29
2022-10-05T12:02:40.040Z,73.92
2022-10-05T12:05:51.882Z,74.07
2022-10-05T12:10:17.441Z,73.38
2022-10-05T12:13:44.151Z,73.77
2022-10-05T12:17:00.237Z,73.98
2022-10-05T12:20:26.990Z,74.96
2022-10-05T12:23:55.091Z,75.80
2022-10-05T12:27:12.343Z,75.20
2022-10-05T12:30:54.724Z,75.12
2022-10-05T12:34:15.794Z,76.09
2022-10-05T12:38:04.847Z,75.93
2022-10-05T12:41:36.730Z,75.75
2022-10-05T12:45:08.178Z,76.51
2022-10-05T12:48:31.451Z,76.69
2022-10-05T12:52:03.026Z,77.16
2022-10-05T12:55:46.059Z,77.60
2022-10-05T12:59:42.460Z,76.89
2022-10-05T13:02:51.032Z,77.75
2022-10-05T13:06:08.067Z,77.42
2022-10-05T13:09:49.448Z,76.05
2022-10-05T13:13:21.108Z,75.88
2022-10-05T13:16:37.712Z,74.89
2022-10-05T13:19:47.048Z,75.71
2022-10-05T13:22:54.458Z,75.43
2022-10-05T13:26:29.547Z,75.00
2022-10-05T13:29:40.393Z,73.69
2022-10-05T13:32:44.710Z,73.10
2022-10-05T13:35:52.705Z,73.18
2022-10-05T13:39:03.761Z,71.61
2022-10-05T13:43:16.556Z,66.49
2022-10-05T13:46:59.921Z,66.44
2022-10-05T13:50:33.723Z,61.43
2022-10-05T13:54:04.931Z,60.24
2022-10-05T13:57:32.947Z,63.39
2022-10-05T14:00:50.210Z,69.26
2022-10-05T14:04:24.539Z,72.11
2022-10-05T14:07:39.127Z,72.48
2022-10-05T14:10:43.677Z,73.56
2022-10-05T14:13:47.163Z,71.97
2022-10-05T14:16:54.853Z,72.63
2022-10-05T14:20:00.147Z,72.81
2022-10-05T14:23:25.468Z,72.43
2022-10-05T14:26:33.694Z,72.61
2022-10-05T14:29:38.094Z,72.15
2022-10-05T14:33:15.035Z,70.58
2022-10-05T14:36:36.400Z,70.19
2022-10-05T14:39:41.582Z,71.33
2022-10-05T14:42:47.169Z,73.48
2022-10-05T14:46:01.479Z,71.52
2022-10-05T14:49:24.416Z,66.52
2022-10-05T14:52:32.894Z,60.55
2022-10-05T14:55:53.468Z,57.93
2022-10-05T14:59:26.686Z,66.07
2022-10-05T15:02:44.984Z,71.84
2022-10-05T15:05:58.979Z,73.04
2022-10-05T15:09:38.579Z,72.30
2022-10-05T15:12:46.866Z,70.54
2022-10-05T15:16:12.693Z,69.06
2022-10-05T15:20:02.097Z,72.39
2022-10-05T15:23:38.222Z,72.73
2022-10-05T15:26:52.971Z,73.69
2022-10-05T15:30:18.256Z,74.13
2022-10-05T15:34:01.682Z,76.92
2022-10-05T15:37:16.181Z,76.33
2022-10-05T15:40:59.855Z,72.91
2022-10-05T15:44:34.279Z,69.90
2022-10-05T15:48:05.428Z,72.76
2022-10-05T15:51:18.034Z,73.32
2022-10-05T15:54:49.847Z,72.24
2022-10-05T15:58:15.964Z,72.52
2022-10-05T16:01:49.332Z,72.30
2022-10-05T16:05:53.520Z,71.33
2022-10-05T16:09:23.516Z,72.89
2022-10-05T16:12:56.648Z,73.59
2022-10-05T16:16:28.218Z,66.05
2022-10-05T16:20:03.085Z,58.46
2022-10-05T16:23:39.933Z,56.78
2022-10-05T16:27:13.890Z,56.52
2022-10-05T16:30:18.802Z,55.56
2022-10-05T16:33:54.507Z,57.76
2022-10-05T16:37:13.600Z,55.94
2022-10-05T16:40:39.926Z,57.09
2022-10-05T16:44:24.586Z,56.78
2022-10-05T16:47:50.621Z,56.34
2022-10-05T16:51:07.838Z,55.13
2022-10-05T16:54:19.491Z,55.91
2022-10-05T16:57:25.539Z,56.47
2022-10-05T17:00:39.142Z,57.81
2022-10-05T17:04:14.695Z,63.28
2022-10-05T17:07:32.883Z,64.71
2022-10-05T17:11:13.447Z,66.35
2022-10-05T17:14:33.320Z,67.18
2022-10-05T17:18:17.094Z,68.07
2022-10-05T17:22:03.173Z,67.83
2022-10-05T17:25:28.422Z,68.09
2022-10-05T17:28:52.096Z,68.30
2022-10-05T17:32:16.245Z,68.37
2022-10-05T17:35:20.412Z,70.26
2022-10-05T17:38:35.437Z,71.12
2022-10-05T17:41:38.777Z,72.48
2022-10-05T17:44:40.831Z,71.10
2022-10-05T17:48:05.749Z,71.43
2022-10-05T17:51:47.956Z,71.71
2022-10-05T17:55:10.222Z,72.03
2022-10-05T17:58:24.648Z,72.49
2022-10-05T18:01:32.571Z,71.77
2022-10-05T18:04:38.988Z,71.99
2022-10-05T18:07:42.239Z,71.37
2022-10-05T18:11:09.116Z,72.25
2022-10-05T18:14:24.712Z,72.83
2022-10-05T18:17:47.791Z,73.13
2022-10-05T18:21:14.574Z,73.86
2022-10-05T18:24:25.348Z,74.45
2022-10-05T18:27:54.042Z,73.46
2022-10-05T18:31:34.097Z,73.69
2022-10-05T18:35:04.458Z,73.84
2022-10-05T18:38:12.273Z,76.03
2022-10-05T18:41:54.328Z,74.36
2022-10-05T18:45:15.452Z,71.68
2022-10-05T18:48:31.328Z,71.33
2022-10-05T18:52:17.670Z,71.82
2022-10-05T18:55:53.320Z,72.52
2022-10-05T18:59:04.064Z,74.20
2022-10-05T19:03:02.449Z,74.20
2022-10-05T19:06:24.619Z,74.42
2022-10-05T19:09:59.588Z,74.07
2022-10-05T19:13:46.805Z,74.02
2022-10-05T19:17:10.092Z,73.47
2022-10-05T19:20:59.273Z,73.38
2022-10-05T19:24:04.653Z,73.12
2022-10-05T19:27:17.331Z,73.64
2022-10-05T19:30:28.766Z,73.99
2022-10-05T19:34:02.347Z,73.88
2022-10-05T19:37:24.547Z,74.22
2022-10-05T19:40:45.287Z,73.80
2022-10-05T19:44:35.430Z,72.38
2022-10-05T19:48:04.231Z,71.47
2022-10-05T19:51:25.623Z,70.90
2022-10-05T19:54:30.847Z,71.17
2022-10-05T19:57:33.011Z,72.39
2022-10-05T20:00:35.531Z,73.32
2022-10-05T20:03:38.099Z,74.28
2022-10-05T20:06:40.223Z,72.98
2022-10-05T20:10:00.121Z,73.11
2022-10-05T20:13:03.858Z,75.45
2022-10-05T20:16:31.511Z,75.66
2022-10-05T20:19:51.962Z,75.60
2022-10-05T20:22:54.104Z,76.13
2022-10-05T20:26:14.944Z,76.79
2022-10-05T20:29:17.030Z,76.97
2022-10-05T20:32:19.207Z,76.49
2022-10-05T20:35:25.289Z,76.12
2022-10-05T20:38:27.742Z,76.50
2022-10-05T20:41:30.339Z,75.84
2022-10-05T20:44:32.411Z,75.92
2022-10-05T20:47:36.145Z,75.56
2022-10-05T20:50:38.840Z,75.99
2022-10-05T20:53:41.012Z,75.36
2022-10-05T20:56:43.091Z,75.71
2022-10-05T20:59:45.798Z,76.18
2022-10-05T21:02:48.333Z,75.72
2022-10-05T21:05:50.694Z,75.22
2022-10-05T21:08:52.926Z,75.26
2022-10-05T21:11:56.232Z,75.58
2022-10-05T21:14:59.670Z,75.44
2022-10-05T21:18:01.745Z,75.25
2022-10-05T21:21:03.980Z,75.31
2022-10-05T21:24:06.621Z,74.71
2022-10-05T21:27:09.847Z,74.62
2022-10-05T21:30:12.378Z,74.75
2022-10-05T21:33:14.470Z,73.94
2022-10-05T21:36:21.000Z,74.84
2022-10-05T21:39:25.312Z,74.82
2022-10-05T21:42:27.432Z,74.79
2022-10-05T21:45:29.845Z,74.88
2022-10-05T21:48:32.183Z,75.63
2022-10-05T21:51:34.456Z,75.30
2022-10-05T21:54:36.608Z,74.98
2022-10-05T21:57:38.678Z,74.63
2022-10-05T22:00:41.171Z,74.49
2022-10-05T22:03:43.320Z,74.41
2022-10-05T22:06:45.430Z,74.49
2022-10-05T22:09:51.095Z,74.49
2022-10-05T22:12:53.209Z,74.58
2022-10-05T22:15:56.238Z,74.27
2022-10-05T22:18:58.619Z,73.89
2022-10-05T22:22:00.656Z,73.96
2022-10-05T22:25:02.811Z,74.07
2022-10-05T22:28:05.046Z,74.08
2022-10-05T22:31:07.924Z,74.01
2022-10-05T22:34:10.000Z,74.59
2022-10-05T22:37:15.693Z,74.74
2022-10-05T22:40:17.811Z,74.23
2022-10-05T22:43:20.008Z,74.04
2022-10-05T22:46:22.093Z,74.42
2022-10-05T22:49:24.699Z,74.27
2022-10-05T22:52:26.843Z,74.01
2022-10-05T22:55:29.626Z,74.27
2022-10-05T22:58:31.748Z,73.84
2022-10-05T23:01:34.121Z,73.66
2022-10-05T23:04:36.341Z,72.50
2022-10-05T23:07:44.214Z,72.59
2022-10-05T23:10:46.330Z,72.94
2022-10-05T23:13:48.719Z,73.46
2022-10-05T23:16:50.828Z,73.01
2022-10-05T23:19:54.175Z,72.54
2022-10-05T23:22:56.379Z,72.14
2022-10-05T23:26:02.612Z,72.25
2022-10-05T23:29:04.702Z,72.34
2022-10-05T23:32:08.018Z,71.48
2022-10-05T23:35:11.898Z,72.08
2022-10-05T23:38:14.012Z,71.86
2022-10-05T23:41:16.256Z,72.27
2022-10-05T23:44:18.457Z,71.59
2022-10-05T23:47:20.499Z,72.15
2022-10-05T23:50:24.923Z,71.37
2022-10-05T23:53:27.026Z,70.99
2022-10-05T23:56:29.250Z,71.58
2022-10-05T23:59:31.355Z,72.33
